createdAt,value
2022-12-12T00:01:15.499Z,-5.52
2022-12-12T00:03:43.108Z,-5.52
2022-12-12T00:06:10.340Z,-5.52
2022-12-12T00:08:37.852Z,-5.51
2022-12-12T00:11:05.961Z,-5.52
2022-12-12T00:13:34.985Z,-5.48
2022-12-12T00:16:05.968Z,-5.50
2022-12-12T00:18:36.790Z,-5.52
2022-12-12T00:21:07.325Z,-5.53
2022-12-12T00:23:34.840Z,-5.58
2022-12-12T00:26:08.910Z,-5.58
2022-12-12T00:28:36.358Z,-5.59
2022-12-12T00:31:04.737Z,-5.55
2022-12-12T00:33:32.424Z,-5.51
2022-12-12T00:35:59.599Z,-5.51
2022-12-12T00:38:26.829Z,-5.53
2022-12-12T00:40:59.375Z,-5.55
2022-12-12T00:43:27.552Z,-5.55
2022-12-12T00:45:54.810Z,-5.56
2022-12-12T00:48:21.945Z,-5.45
2022-12-12T00:50:50.654Z,-5.47
2022-12-12T00:53:17.858Z,-5.48
2022-12-12T00:55:46.279Z,-5.45
2022-12-12T00:58:13.343Z,-5.49
2022-12-12T01:00:41.626Z,-5.49
2022-12-12T01:03:08.823Z,-5.48
2022-12-12T01:05:35.974Z,-5.50
2022-12-12T01:08:04.891Z,-5.52
2022-12-12T01:10:34.844Z,-5.49
2022-12-12T01:13:03.499Z,-5.48
2022-12-12T01:15:30.928Z,-5.48
2022-12-12T01:17:58.056Z,-5.51
2022-12-12T01:20:27.794Z,-5.44
2022-12-12T01:22:55.153Z,-5.48
2022-12-12T01:25:22.609Z,-5.44
2022-12-12T01:27:49.879Z,-5.42
2022-12-12T01:30:19.292Z,-5.47
2022-12-12T01:32:50.068Z,-5.42
2022-12-12T01:35:17.862Z,-5.43
2022-12-12T01:37:44.989Z,-5.47
2022-12-12T01:40:24.495Z,-5.46
2022-12-12T01:42:51.818Z,-5.43
2022-12-12T01:46:04.127Z,-5.39
2022-12-12T01:48:39.233Z,-5.37
2022-12-12T01:51:19.541Z,-5.39
2022-12-12T01:53:49.955Z,-5.40
2022-12-12T01:56:21.256Z,-5.41
2022-12-12T01:58:51.352Z,-5.36
2022-12-12T02:01:20.403Z,-5.40
2022-12-12T02:03:49.289Z,-5.33
2022-12-12T02:06:22.691Z,-5.30
2022-12-12T02:08:53.108Z,-5.34
2022-12-12T02:11:20.536Z,-5.33
2022-12-12T02:13:48.394Z,-5.36
2022-12-12T02:16:25.965Z,-5.36
2022-12-12T02:19:23.807Z,-5.36
2022-12-12T02:22:00.195Z,-5.33
2022-12-12T02:24:42.063Z,-5.33
2022-12-12T02:27:30.890Z,-5.31
2022-12-12T02:30:06.237Z,-5.29
2022-12-12T02:33:09.106Z,-5.33
2022-12-12T02:35:43.509Z,-5.33
2022-12-12T02:38:30.935Z,-5.30
2022-12-12T02:40:57.982Z,-5.29
2022-12-12T02:43:39.219Z,-5.30
2022-12-12T02:46:17.985Z,-5.29
2022-12-12T02:48:59.592Z,-5.29
2022-12-12T02:51:29.249Z,-5.27
2022-12-12T02:53:59.701Z,-5.26
2022-12-12T02:56:42.124Z,-5.28
2022-12-12T02:59:10.914Z,-5.27
2022-12-12T03:02:04.242Z,-5.27
2022-12-12T03:05:31.266Z,-5.26
2022-12-12T03:08:04.312Z,-5.30
2022-12-12T03:10:57.243Z,-5.30
2022-12-12T03:13:30.574Z,-5.30
2022-12-12T03:16:15.056Z,-5.28
2022-12-12T03:18:58.151Z,-5.31
2022-12-12T03:21:35.385Z,-5.31
2022-12-12T03:24:24.387Z,-5.29
2022-12-12T03:27:17.000Z,-5.30
2022-12-12T03:29:54.628Z,-5.29
2022-12-12T03:32:28.250Z,-5.30
2022-12-12T03:35:01.545Z,-5.27
2022-12-12T03:37:35.401Z,-5.27
2022-12-12T03:40:13.905Z,-5.28
2022-12-12T03:43:02.300Z,-5.24
2022-12-12T03:45:48.252Z,-5.24
2022-12-12T03:48:33.896Z,-5.22
2022-12-12T03:51:05.690Z,-5.24
2022-12-12T03:53:43.652Z,-5.22
2022-12-12T03:56:15.698Z,-5.23
2022-12-12T03:58:50.362Z,-5.21
2022-12-12T04:01:20.535Z,-5.19
2022-12-12T04:04:06.063Z,-5.18
2022-12-12T04:06:41.383Z,-5.18
2022-12-12T04:09:34.455Z,-5.16
2022-12-12T04:12:28.565Z,-5.14
2022-12-12T04:15:47.014Z,-5.13
2022-12-12T04:18:17.099Z,-5.11
2022-12-12T04:21:40.379Z,-5.13
2022-12-12T04:24:46.806Z,-5.13
2022-12-12T04:27:23.590Z,-5.09
2022-12-12T04:30:09.278Z,-5.09
2022-12-12T04:32:48.052Z,-5.09
2022-12-12T04:35:20.268Z,-5.07
2022-12-12T04:37:51.055Z,-5.06
2022-12-12T04:40:24.150Z,-5.06
2022-12-12T04:42:56.894Z,-5.06
2022-12-12T04:45:50.838Z,-5.10
2022-12-12T04:48:23.751Z,-5.07
2022-12-12T04:50:53.223Z,-5.09
2022-12-12T04:53:28.962Z,-5.09
2022-12-12T04:55:57.881Z,-5.09
2022-12-12T04:58:25.391Z,-5.05
2022-12-12T05:01:12.700Z,-5.08
2022-12-12T05:03:48.926Z,-5.08
2022-12-12T05:06:20.643Z,-5.06
2022-12-12T05:08:53.804Z,-5.07
2022-12-12T05:11:22.243Z,-5.06
2022-12-12T05:13:50.556Z,-5.05
2022-12-12T05:16:29.675Z,-5.04
2022-12-12T05:18:56.814Z,-5.05
2022-12-12T05:21:23.952Z,-5.01
2022-12-12T05:23:51.128Z,-5.02
2022-12-12T05:26:33.141Z,-5.02
2022-12-12T05:29:06.671Z,-5.00
2022-12-12T05:31:35.095Z,-5.01
2022-12-12T05:34:03.102Z,-4.97
2022-12-12T05:36:30.420Z,-4.99
2022-12-12T05:38:57.524Z,-4.96
2022-12-12T05:41:24.705Z,-4.96
2022-12-12T05:43:52.196Z,-4.95
2022-12-12T05:46:19.360Z,-4.98
2022-12-12T05:48:50.561Z,-4.94
2022-12-12T05:51:18.640Z,-4.95
2022-12-12T05:53:47.310Z,-4.94
2022-12-12T05:56:14.479Z,-4.95
2022-12-12T05:58:42.474Z,-4.97
2022-12-12T06:01:10.006Z,-4.96
2022-12-12T06:03:40.008Z,-4.94
2022-12-12T06:06:10.545Z,-4.96
2022-12-12T06:08:37.742Z,-4.96
2022-12-12T06:11:06.670Z,-4.96
2022-12-12T06:13:34.786Z,-4.95
2022-12-12T06:16:07.461Z,-4.97
2022-12-12T06:18:34.776Z,-4.91
2022-12-12T06:21:04.026Z,-4.96
2022-12-12T06:23:31.082Z,-4.95
2022-12-12T06:25:58.182Z,-4.95
2022-12-12T06:28:25.291Z,-4.95
2022-12-12T06:30:52.603Z,-4.97
2022-12-12T06:33:19.756Z,-4.94
2022-12-12T06:36:08.192Z,-4.94
2022-12-12T06:38:35.898Z,-4.95
2022-12-12T06:41:12.235Z,-4.94
2022-12-12T06:43:40.405Z,-4.94
2022-12-12T06:46:10.190Z,-4.95
2022-12-12T06:48:37.311Z,-4.93
2022-12-12T06:51:10.563Z,-4.91
2022-12-12T06:53:37.797Z,-4.95
2022-12-12T06:56:13.947Z,-4.96
2022-12-12T06:58:41.188Z,-4.95
2022-12-12T07:01:08.923Z,-4.92
2022-12-12T07:03:35.960Z,-4.94
2022-12-12T07:06:06.221Z,-4.94
2022-12-12T07:08:37.102Z,-4.94
2022-12-12T07:11:11.621Z,-4.93
2022-12-12T07:13:39.627Z,-4.92
2022-12-12T07:16:07.556Z,-4.91
2022-12-12T07:18:35.042Z,-4.94
2022-12-12T07:21:09.756Z,-4.91
2022-12-12T07:23:37.261Z,-4.90
2022-12-12T07:26:11.503Z,-4.89
2022-12-12T07:28:38.719Z,-4.89
2022-12-12T07:31:07.825Z,-4.91
2022-12-12T07:33:43.493Z,-4.87
2022-12-12T07:36:13.347Z,-4.88
2022-12-12T07:38:41.239Z,-4.89
2022-12-12T07:41:20.490Z,-4.89
2022-12-12T07:43:49.864Z,-4.88
2022-12-12T07:46:20.322Z,-4.91
2022-12-12T07:48:48.096Z,-4.92
2022-12-12T07:51:18.693Z,-4.94
2022-12-12T07:53:45.993Z,-4.92
2022-12-12T07:56:15.660Z,-4.90
2022-12-12T07:58:42.877Z,-4.89
2022-12-12T08:01:19.164Z,-4.89
2022-12-12T08:03:47.789Z,-4.86
2022-12-12T08:06:16.884Z,-4.89
2022-12-12T08:08:45.025Z,-4.90
2022-12-12T08:11:21.655Z,-4.89
2022-12-12T08:13:52.580Z,-4.88
2022-12-12T08:16:25.218Z,-4.91
2022-12-12T08:18:57.812Z,-4.96
2022-12-12T08:21:26.516Z,-4.96
2022-12-12T08:23:58.401Z,-4.95
2022-12-12T08:26:27.198Z,-4.93
2022-12-12T08:28:55.529Z,-4.90
2022-12-12T08:31:23.477Z,-4.89
2022-12-12T08:33:51.157Z,-4.85
2022-12-12T08:36:21.083Z,-4.85
2022-12-12T08:38:49.257Z,-4.88
2022-12-12T08:41:16.976Z,-4.86
2022-12-12T08:43:44.194Z,-4.80
2022-12-12T08:46:17.517Z,-4.76
2022-12-12T08:48:46.233Z,-4.75
2022-12-12T08:51:22.877Z,-4.81
2022-12-12T08:53:53.825Z,-4.86
2022-12-12T08:56:23.253Z,-4.87
2022-12-12T08:58:50.811Z,-4.86
2022-12-12T09:01:35.848Z,-4.85
2022-12-12T09:04:03.418Z,-4.81
2022-12-12T09:06:30.647Z,-4.79
2022-12-12T09:09:15.687Z,-4.75
2022-12-12T09:11:45.584Z,-4.73
2022-12-12T09:14:12.721Z,-4.74
2022-12-12T09:16:40.001Z,-4.71
2022-12-12T09:19:09.979Z,-4.70
2022-12-12T09:21:47.510Z,-4.70
2022-12-12T09:24:20.322Z,-4.64
2022-12-12T09:26:47.641Z,-4.60
2022-12-12T09:29:19.496Z,-4.61
2022-12-12T09:31:46.845Z,-4.55
2022-12-12T09:34:14.068Z,-4.45
2022-12-12T09:36:41.259Z,-4.46
2022-12-12T09:39:13.319Z,-4.50
2022-12-12T09:41:43.459Z,-4.48
2022-12-12T09:44:22.559Z,-4.46
2022-12-12T09:47:05.261Z,-4.41
2022-12-12T09:49:44.011Z,-4.38
2022-12-12T09:52:17.590Z,-4.41
2022-12-12T09:54:45.232Z,-4.39
2022-12-12T09:57:18.120Z,-4.40
2022-12-12T10:00:20.622Z,-4.34
2022-12-12T10:03:49.155Z,-4.37
2022-12-12T10:09:44.738Z,-4.24
2022-12-12T10:12:16.355Z,-4.35
2022-12-12T10:15:11.830Z,-4.34
2022-12-12T10:17:48.167Z,-4.40
2022-12-12T10:20:26.607Z,-4.33
2022-12-12T10:23:02.905Z,-4.28
2022-12-12T10:26:00.310Z,-4.35
2022-12-12T10:28:34.460Z,-4.37
2022-12-12T10:31:20.702Z,-4.32
2022-12-12T10:34:12.736Z,-4.24
2022-12-12T10:36:56.521Z,-4.17
2022-12-12T10:39:46.554Z,-4.11
2022-12-12T10:42:41.553Z,-4.07
2022-12-12T10:45:21.536Z,-4.10
2022-12-12T10:47:51.991Z,-4.08
2022-12-12T10:50:36.299Z,-4.09
2022-12-12T10:53:06.455Z,-4.07
2022-12-12T10:55:45.500Z,-4.02
2022-12-12T10:58:13.475Z,-3.96
2022-12-12T11:00:43.637Z,-3.97
2022-12-12T11:03:39.702Z,-3.99
2022-12-12T11:06:19.186Z,-3.99
2022-12-12T11:08:57.975Z,-3.97
2022-12-12T11:11:34.508Z,-4.00
2022-12-12T11:14:22.348Z,-4.03
2022-12-12T11:16:49.560Z,-4.03
2022-12-12T11:19:27.708Z,-4.02
2022-12-12T11:22:02.723Z,-4.01
2022-12-12T11:24:35.730Z,-4.02
2022-12-12T11:27:08.190Z,-4.01
2022-12-12T11:29:46.668Z,-4.00
2022-12-12T11:32:30.870Z,-3.95
2022-12-12T11:35:09.267Z,-3.96
2022-12-12T11:37:49.544Z,-3.98
2022-12-12T11:40:26.657Z,-3.97
2022-12-12T11:43:22.246Z,-3.95
2022-12-12T11:46:26.921Z,-3.98
2022-12-12T11:48:54.026Z,-3.95
2022-12-12T11:51:44.570Z,-3.98
2022-12-12T11:54:14.530Z,-3.93
2022-12-12T11:57:02.141Z,-3.94
2022-12-12T11:59:56.057Z,-3.97
2022-12-12T12:02:59.153Z,-3.95
2022-12-12T12:05:44.181Z,-3.96
2022-12-12T12:08:32.228Z,-3.95
2022-12-12T12:11:36.509Z,-3.91
2022-12-12T12:14:21.317Z,-3.87
2022-12-12T12:17:04.755Z,-3.85
2022-12-12T12:20:16.979Z,-3.83
2022-12-12T12:23:21.761Z,-3.74
2022-12-12T12:26:17.557Z,-3.73
2022-12-12T12:29:07.015Z,-3.68
2022-12-12T12:32:14.624Z,-3.60
2022-12-12T12:34:58.459Z,-3.59
2022-12-12T12:37:43.880Z,-3.57
2022-12-12T12:40:16.985Z,-3.53
2022-12-12T12:43:06.145Z,-3.49
2022-12-12T12:45:49.503Z,-3.58
2022-12-12T12:48:30.456Z,-3.63
2022-12-12T12:51:03.479Z,-3.62
2022-12-12T12:53:48.668Z,-3.62
2022-12-12T12:56:29.839Z,-3.63
2022-12-12T12:59:01.346Z,-3.58
2022-12-12T13:01:40.705Z,-3.57
2022-12-12T13:04:10.701Z,-3.63
2022-12-12T13:07:01.187Z,-3.65
2022-12-12T13:09:55.010Z,-3.64
2022-12-12T13:12:37.302Z,-3.62
2022-12-12T13:15:34.726Z,-3.61
2022-12-12T13:18:10.893Z,-3.66
2022-12-12T13:21:22.561Z,-3.55
2022-12-12T13:23:55.900Z,-3.60
2022-12-12T13:26:34.440Z,-3.64
2022-12-12T13:29:30.931Z,-3.61
2022-12-12T13:32:10.358Z,-3.60
2022-12-12T13:34:53.400Z,-3.62
2022-12-12T13:37:22.680Z,-3.63
2022-12-12T13:40:06.287Z,-3.63
2022-12-12T13:43:09.430Z,-3.64
2022-12-12T13:45:45.581Z,-3.62
2022-12-12T13:48:30.038Z,-3.69
2022-12-12T13:51:28.618Z,-3.70
2022-12-12T13:54:12.630Z,-3.73
2022-12-12T13:56:45.746Z,-3.73
2022-12-12T13:59:29.578Z,-3.75
2022-12-12T14:02:01.046Z,-3.72
2022-12-12T14:04:37.726Z,-3.74
2022-12-12T14:07:22.748Z,-3.79
2022-12-12T14:09:54.131Z,-3.85
2022-12-12T14:12:31.130Z,-3.88
2022-12-12T14:15:05.374Z,-3.94
2022-12-12T14:17:41.719Z,-3.97
2022-12-12T14:20:31.330Z,-3.98
2022-12-12T14:23:13.788Z,-4.04
2022-12-12T14:25:41.586Z,-4.04
2022-12-12T14:28:15.788Z,-4.06
2022-12-12T14:31:05.898Z,-4.10
2022-12-12T14:33:52.706Z,-4.19
2022-12-12T14:36:35.328Z,-4.30
2022-12-12T14:39:25.361Z,-4.34
2022-12-12T14:41:54.226Z,-4.39
2022-12-12T14:44:34.890Z,-4.41
2022-12-12T14:47:08.755Z,-4.47
2022-12-12T14:49:36.572Z,-4.56
2022-12-12T14:52:04.032Z,-4.67
2022-12-12T14:54:31.664Z,-4.77
2022-12-12T14:56:59.481Z,-4.88
2022-12-12T14:59:31.483Z,-4.95
2022-12-12T15:02:19.687Z,-5.00
2022-12-12T15:04:50.793Z,-5.02
2022-12-12T15:07:28.505Z,-5.15
2022-12-12T15:09:56.544Z,-5.18
2022-12-12T15:12:26.719Z,-5.23
2022-12-12T15:14:56.937Z,-5.31
2022-12-12T15:17:24.013Z,-5.34
2022-12-12T15:19:56.535Z,-5.30
2022-12-12T15:22:31.575Z,-5.35
2022-12-12T15:25:02.069Z,-5.30
2022-12-12T15:27:46.992Z,-5.26
2022-12-12T15:30:19.691Z,-5.25
2022-12-12T15:32:48.507Z,-5.30
2022-12-12T15:35:22.316Z,-5.28
2022-12-12T15:38:05.750Z,-5.27
2022-12-12T15:40:34.839Z,-5.29
2022-12-12T15:43:11.745Z,-5.30
2022-12-12T15:45:42.288Z,-5.30
2022-12-12T15:48:15.771Z,-5.33
2022-12-12T15:50:42.893Z,-5.34
2022-12-12T15:53:29.402Z,-5.36
2022-12-12T15:55:58.358Z,-5.39
2022-12-12T15:58:39.308Z,-5.36
2022-12-12T16:01:21.991Z,-5.41
2022-12-12T16:04:06.248Z,-5.43
2022-12-12T16:06:37.600Z,-5.44
2022-12-12T16:09:07.721Z,-5.45
2022-12-12T16:11:41.621Z,-5.46
2022-12-12T16:14:40.769Z,-5.47
2022-12-12T16:17:19.397Z,-5.47
2022-12-12T16:19:54.205Z,-5.45
2022-12-12T16:22:36.880Z,-5.44
2022-12-12T16:25:25.661Z,-5.45
2022-12-12T16:28:23.209Z,-5.39
2022-12-12T16:30:59.570Z,-5.41
2022-12-12T16:33:40.560Z,-5.39
2022-12-12T16:36:13.448Z,-5.37
2022-12-12T16:38:41.395Z,-5.37
2022-12-12T16:41:13.104Z,-5.33
2022-12-12T16:43:40.832Z,-5.33
2022-12-12T16:46:19.372Z,-5.33
2022-12-12T16:48:47.401Z,-5.31
2022-12-12T16:51:35.213Z,-5.30
2022-12-12T16:54:02.548Z,-5.29
2022-12-12T16:56:42.301Z,-5.23
2022-12-12T16:59:10.260Z,-5.27
2022-12-12T17:01:39.161Z,-5.26
2022-12-12T17:04:15.900Z,-5.27
2022-12-12T17:06:43.330Z,-5.27
2022-12-12T17:09:10.550Z,-5.26
2022-12-12T17:11:38.352Z,-5.24
2022-12-12T17:14:05.682Z,-5.20
2022-12-12T17:16:33.075Z,-5.23
2022-12-12T17:19:00.679Z,-5.22
2022-12-12T17:21:27.900Z,-5.22
2022-12-12T17:23:55.088Z,-5.23
2022-12-12T17:26:22.487Z,-5.25
2022-12-12T17:28:49.886Z,-5.33
2022-12-12T17:31:17.186Z,-5.35
2022-12-12T17:33:50.551Z,-5.38
2022-12-12T17:36:19.731Z,-5.30
2022-12-12T17:38:48.228Z,-5.35
2022-12-12T17:41:15.872Z,-5.38
2022-12-12T17:43:43.192Z,-5.38
2022-12-12T17:46:14.467Z,-5.36
2022-12-12T17:48:47.415Z,-5.34
2022-12-12T17:51:18.012Z,-5.33
2022-12-12T17:53:45.608Z,-5.34
2022-12-12T17:56:18.245Z,-5.33
2022-12-12T17:58:47.071Z,-5.34
2022-12-12T18:01:22.918Z,-5.34
2022-12-12T18:03:51.168Z,-5.36
2022-12-12T18:06:20.038Z,-5.34
2022-12-12T18:08:48.084Z,-5.35
2022-12-12T18:11:21.540Z,-5.36
2022-12-12T18:13:48.886Z,-5.37
2022-12-12T18:16:17.261Z,-5.38
2022-12-12T18:18:45.101Z,-5.38
2022-12-12T18:24:05.968Z,-5.38
2022-12-12T18:26:33.983Z,-5.37
2022-12-12T18:29:05.379Z,-5.37
2022-12-12T18:31:34.221Z,-5.37
2022-12-12T18:34:01.750Z,-5.38
2022-12-12T18:36:31.325Z,-5.39
2022-12-12T18:39:01.141Z,-5.39
2022-12-12T18:41:31.853Z,-5.40
2022-12-12T18:44:05.995Z,-5.43
2022-12-12T18:46:40.332Z,-5.44
2022-12-12T18:49:13.683Z,-5.43
2022-12-12T18:51:41.681Z,-5.43
2022-12-12T18:54:14.988Z,-5.45
2022-12-12T18:56:45.333Z,-5.46
2022-12-12T18:59:13.114Z,-5.45
2022-12-12T19:01:40.455Z,-5.43
2022-12-12T19:04:12.497Z,-5.49
2022-12-12T19:06:41.209Z,-5.48
2022-12-12T19:09:15.034Z,-5.48
2022-12-12T19:11:43.334Z,-5.49
2022-12-12T19:14:12.768Z,-5.49
2022-12-12T19:16:40.569Z,-5.49
2022-12-12T19:19:09.716Z,-5.48
2022-12-12T19:21:38.578Z,-5.48
2022-12-12T19:24:12.429Z,-5.49
2022-12-12T19:26:42.849Z,-5.46
2022-12-12T19:29:16.537Z,-5.49
2022-12-12T19:31:44.892Z,-5.47
2022-12-12T19:34:14.111Z,-5.48
2022-12-12T19:36:41.928Z,-5.50
2022-12-12T19:39:11.972Z,-5.49
2022-12-12T19:41:40.069Z,-5.48
2022-12-12T19:44:12.637Z,-5.47
2022-12-12T19:46:47.992Z,-5.46
2022-12-12T19:49:16.810Z,-5.47
2022-12-12T19:51:45.698Z,-5.48
2022-12-12T19:54:19.407Z,-5.48
2022-12-12T19:56:47.294Z,-5.47
2022-12-12T19:59:16.804Z,-5.47
2022-12-12T20:01:44.632Z,-5.47
2022-12-12T20:04:18.168Z,-5.48
2022-12-12T20:06:46.497Z,-5.49
2022-12-12T20:09:16.837Z,-5.48
2022-12-12T20:11:45.492Z,-5.48
2022-12-12T20:14:18.027Z,-5.46
2022-12-12T20:16:45.637Z,-5.46
2022-12-12T20:19:13.978Z,-5.46
2022-12-12T20:22:00.938Z,-5.46
2022-12-12T20:24:29.441Z,-5.45
2022-12-12T20:26:57.268Z,-5.46
2022-12-12T20:29:24.473Z,-5.49
2022-12-12T20:31:51.765Z,-5.48
2022-12-12T20:34:24.817Z,-5.49
2022-12-12T20:36:55.261Z,-5.48
2022-12-12T20:39:24.755Z,-5.50
2022-12-12T20:41:53.853Z,-5.49
2022-12-12T20:44:23.315Z,-5.52
2022-12-12T20:46:51.494Z,-5.52
2022-12-12T20:49:20.066Z,-5.49
2022-12-12T20:51:57.045Z,-5.51
2022-12-12T20:54:27.798Z,-5.54
2022-12-12T20:56:55.762Z,-5.54
2022-12-12T20:59:23.843Z,-5.54
2022-12-12T21:01:51.863Z,-5.53
2022-12-12T21:04:19.718Z,-5.56
2022-12-12T21:06:51.227Z,-5.54
2022-12-12T21:09:24.795Z,-5.53
2022-12-12T21:11:54.692Z,-5.53
2022-12-12T21:14:22.106Z,-5.53
2022-12-12T21:16:49.259Z,-5.54
2022-12-12T21:19:18.822Z,-5.52
2022-12-12T21:21:46.617Z,-5.54
2022-12-12T21:24:14.924Z,-5.54
2022-12-12T21:26:42.551Z,-5.57
2022-12-12T21:29:09.727Z,-5.56
2022-12-12T21:31:42.265Z,-5.56
2022-12-12T21:34:12.704Z,-5.56
2022-12-12T21:36:39.716Z,-5.57
2022-12-12T21:39:07.056Z,-5.56
2022-12-12T21:41:35.177Z,-5.55
2022-12-12T21:44:02.352Z,-5.55
2022-12-12T21:46:30.172Z,-5.56
2022-12-12T21:49:17.426Z,-5.54
2022-12-12T21:51:45.884Z,-5.54
2022-12-12T21:54:14.653Z,-5.54
2022-12-12T21:56:42.499Z,-5.55
2022-12-12T21:59:10.736Z,-5.57
2022-12-12T22:01:38.205Z,-5.57
2022-12-12T22:04:05.861Z,-5.56
2022-12-12T22:06:35.433Z,-5.56
2022-12-12T22:09:05.514Z,-5.55
2022-12-12T22:11:40.738Z,-5.54
2022-12-12T22:14:16.901Z,-5.54
2022-12-12T22:16:44.077Z,-5.51
2022-12-12T22:19:13.191Z,-5.48
2022-12-12T22:21:40.871Z,-5.47
2022-12-12T22:24:08.175Z,-5.46
2022-12-12T22:26:40.025Z,-5.44
2022-12-12T22:29:10.962Z,-5.46
2022-12-12T22:31:39.914Z,-5.44
2022-12-12T22:34:20.031Z,-5.43
2022-12-12T22:36:47.791Z,-5.41
2022-12-12T22:39:25.621Z,-5.41
2022-12-12T22:41:55.144Z,-5.42
2022-12-12T22:44:24.041Z,-5.42
2022-12-12T22:46:53.483Z,-5.44
2022-12-12T22:49:25.634Z,-5.40
2022-12-12T22:51:53.847Z,-5.39
2022-12-12T22:54:21.150Z,-5.40
2022-12-12T22:56:48.400Z,-5.41
2022-12-12T22:59:15.562Z,-5.44
2022-12-12T23:01:43.698Z,-5.44
2022-12-12T23:04:14.495Z,-5.44
2022-12-12T23:06:42.926Z,-5.44
2022-12-12T23:09:19.479Z,-5.42
2022-12-12T23:11:46.887Z,-5.43
2022-12-12T23:14:18.265Z,-5.42
2022-12-12T23:16:46.337Z,-5.41
2022-12-12T23:19:16.207Z,-5.43
2022-12-12T23:21:43.679Z,-5.42
2022-12-12T23:24:12.357Z,-5.39
2022-12-12T23:26:40.335Z,-5.37
2022-12-12T23:29:12.689Z,-5.40
2022-12-12T23:31:40.197Z,-5.41
2022-12-12T23:34:17.837Z,-5.44
2022-12-12T23:36:45.104Z,-5.47
2022-12-12T23:39:13.317Z,-5.46
2022-12-12T23:41:40.787Z,-5.47
2022-12-12T23:44:08.482Z,-5.46
2022-12-12T23:46:36.507Z,-5.47
2022-12-12T23:49:12.587Z,-5.45
2022-12-12T23:51:42.967Z,-5.49
2022-12-12T23:54:16.978Z,-5.47
2022-12-12T23:56:44.938Z,-5.47
2022-12-12T23:59:17.504Z,-5.45
